Time;durP1;ratioP1;P1;durP2;ratioP2;P2;SDS_P1;SDS_P2;PMS_P1;PMS_P2;Temp;Humidity;BMP_temperature;BMP_pressure;BME280_temperature;BME280_humidity;BME280_pressure;Samples;Min_cycle;Max_cycle;Signal;HPM_P1;HPM_P2
2023/01/08 00:02:25;;;;;;;11.63;8.13;;;;;;;4.57;93.79;97676.53;4977521;28;20043;-83
2023/01/08 00:04:51;;;;;;;12.55;8.63;;;;;;;4.50;93.94;97673.81;4980882;28;20026;-83
2023/01/08 00:07:16;;;;;;;13.23;9.10;;;;;;;4.50;93.61;97671.22;4980706;28;20649;-83
2023/01/08 00:09:42;;;;;;;12.20;7.80;;;;;;;4.51;93.16;97662.44;4983328;28;20041;-83
2023/01/08 00:12:08;;;;;;;10.35;7.43;;;;;;;4.47;93.53;97661.16;4981750;28;20053;-83
2023/01/08 00:14:33;;;;;;;14.20;8.80;;;;;;;4.46;93.63;97659.56;4980493;28;20498;-83
2023/01/08 00:16:59;;;;;;;10.13;7.22;;;;;;;4.41;93.93;97656.66;4979338;28;20049;-83
2023/01/08 00:19:24;;;;;;;13.07;8.10;;;;;;;4.42;94.11;97645.28;4981595;28;20108;-83
2023/01/08 00:21:50;;;;;;;13.25;7.82;;;;;;;4.43;93.92;97649.50;4980136;28;20374;-83
2023/01/08 00:24:15;;;;;;;11.45;7.95;;;;;;;4.41;93.77;97640.28;4981838;28;20045;-83
2023/01/08 00:26:41;;;;;;;12.20;8.15;;;;;;;4.41;93.77;97643.66;4982358;28;20111;-83
2023/01/08 00:29:06;;;;;;;10.65;7.43;;;;;;;4.39;94.09;97647.44;4986697;28;20046;-83
2023/01/08 00:31:32;;;;;;;11.77;7.63;;;;;;;4.39;93.69;97647.44;4979938;28;20046;-83
2023/01/08 00:33:57;;;;;;;13.27;8.43;;;;;;;4.42;93.80;97647.88;4979869;28;20042;-83
2023/01/08 00:36:22;;;;;;;9.18;7.35;;;;;;;4.42;93.59;97647.06;4978137;28;20110;-84
2023/01/08 00:38:48;;;;;;;12.02;8.35;;;;;;;4.45;93.63;97642.34;4978927;28;20062;-83
2023/01/08 00:41:15;;;;;;;11.20;8.30;;;;;;;4.41;93.56;97629.88;4979207;28;20031;-83
2023/01/08 00:43:41;;;;;;;15.10;8.13;;;;;;;4.41;93.34;97643.66;4981785;28;20062;-83
2023/01/08 00:46:07;;;;;;;11.82;8.30;;;;;;;4.36;93.46;97645.97;4979495;28;20502;-83
2023/01/08 00:48:37;;;;;;;11.07;8.15;;;;;;;4.28;93.76;97644.22;4978501;28;20031;-83
2023/01/08 00:51:05;;;;;;;12.38;8.48;;;;;;;4.34;93.51;97647.94;4977832;28;20134;-83
2023/01/08 00:53:31;;;;;;;11.88;7.97;;;;;;;4.33;93.64;97638.53;4979131;28;20046;-83
2023/01/08 00:56:07;;;;;;;13.18;8.68;;;;;;;4.33;93.37;97635.94;4978878;28;20105;-83
2023/01/08 00:58:33;;;;;;;11.80;7.97;;;;;;;4.27;93.69;97641.81;4975709;28;20126;-83
2023/01/08 01:00:59;;;;;;;13.93;9.10;;;;;;;4.27;93.98;97628.84;4978858;28;20647;-83
2023/01/08 01:03:24;;;;;;;11.35;7.57;;;;;;;4.24;93.97;97626.56;4977971;28;20058;-83
2023/01/08 01:05:59;;;;;;;11.50;7.65;;;;;;;4.25;93.98;97620.38;4979227;28;20486;-83
2023/01/08 01:08:24;;;;;;;14.00;8.32;;;;;;;4.20;93.96;97617.53;4978664;28;20042;-83
2023/01/08 01:10:50;;;;;;;13.95;8.10;;;;;;;4.21;94.27;97621.72;4980383;28;20395;-83
2023/01/08 01:13:15;;;;;;;12.30;8.50;;;;;;;4.20;94.40;97620.94;4979702;28;20042;-83
2023/01/08 01:15:41;;;;;;;11.23;7.95;;;;;;;4.26;94.59;97622.03;4976095;28;20035;-83
2023/01/08 01:18:07;;;;;;;13.93;8.63;;;;;;;4.24;94.46;97626.56;4977024;28;20310;-82
2023/01/08 01:20:32;;;;;;;14.55;8.80;;;;;;;4.29;94.49;97629.47;4981203;28;20049;-83
2023/01/08 01:22:58;;;;;;;14.40;8.02;;;;;;;4.28;94.26;97631.25;4979372;28;20393;-83
2023/01/08 01:25:23;;;;;;;13.07;8.18;;;;;;;4.29;94.34;97626.88;4979315;28;20034;-83
2023/01/08 01:27:49;;;;;;;14.90;8.40;;;;;;;4.33;93.92;97627.34;4973921;28;20042;-83
2023/01/08 01:30:14;;;;;;;14.88;8.65;;;;;;;4.29;93.65;97621.69;4979247;28;20430;-83
2023/01/08 01:32:40;;;;;;;12.68;8.43;;;;;;;4.27;93.61;97618.44;4977216;28;20056;-83
2023/01/08 01:35:06;;;;;;;14.23;8.75;;;;;;;4.30;94.11;97618.09;4978322;28;20041;-82
2023/01/08 01:37:32;;;;;;;13.90;8.18;;;;;;;4.24;93.75;97623.97;4979737;28;20038;-83
2023/01/08 01:39:57;;;;;;;12.32;8.55;;;;;;;4.27;93.80;97619.25;4978148;28;20049;-82
2023/01/08 01:42:42;;;;;;;11.82;7.72;;;;;;;4.25;94.09;97610.81;4977758;28;20117;-83
2023/01/08 01:45:22;;;;;;;12.30;8.05;;;;;;;4.34;93.64;97609.00;4977373;28;20034;-82
2023/01/08 01:48:05;;;;;;;13.75;8.35;;;;;;;4.27;93.23;97614.06;4978566;28;20394;-82
2023/01/08 01:50:50;;;;;;;12.68;8.02;;;;;;;4.21;92.89;97614.75;4978092;28;20146;-83
2023/01/08 01:53:33;;;;;;;13.27;8.13;;;;;;;4.19;93.07;97616.69;4975791;28;20051;-83
2023/01/08 01:56:02;;;;;;;11.50;8.00;;;;;;;4.25;93.14;97604.81;4979406;28;20034;-82
2023/01/08 01:58:31;;;;;;;13.60;8.30;;;;;;;4.31;92.88;97598.94;4984432;28;20038;-82
2023/01/08 02:01:03;;;;;;;11.80;7.85;;;;;;;4.39;92.51;97595.50;4981473;28;20062;-83
2023/01/08 02:03:37;;;;;;;14.20;7.93;;;;;;;4.43;92.09;97597.56;4976205;28;20031;-82
2023/01/08 02:06:21;;;;;;;12.32;8.32;;;;;;;4.45;91.46;97600.00;4980745;28;20038;-82
2023/01/08 02:09:01;;;;;;;11.48;7.68;;;;;;;4.51;91.43;97592.31;4983214;28;20038;-83
2023/01/08 02:11:38;;;;;;;13.50;8.18;;;;;;;4.39;91.54;97559.97;4985817;28;20034;-82
2023/01/08 02:14:36;;;;;;;14.13;8.30;;;;;;;4.62;91.55;97569.50;4980449;28;20491;-82
2023/01/08 02:17:09;;;;;;;11.88;8.02;;;;;;;4.59;91.46;97556.88;4980563;28;20042;-83
2023/01/08 02:20:02;;;;;;;14.00;9.20;;;;;;;4.69;91.59;97575.63;4980327;28;20388;-82
2023/01/08 02:23:06;;;;;;;13.13;8.18;;;;;;;4.71;90.97;97579.66;4987327;28;20022;-83
2023/01/08 02:25:53;;;;;;;10.48;7.90;;;;;;;4.80;90.83;97575.22;4987851;28;20101;-82
2023/01/08 02:28:20;;;;;;;11.45;8.15;;;;;;;4.80;90.93;97562.25;4982072;28;20043;-83
2023/01/08 02:30:46;;;;;;;12.98;7.97;;;;;;;4.79;90.53;97577.00;4982599;28;20424;-82
2023/01/08 02:33:12;;;;;;;12.23;7.97;;;;;;;4.76;90.76;97576.56;4981665;28;20375;-82
2023/01/08 02:35:47;;;;;;;11.90;7.45;;;;;;;4.75;90.72;97557.56;4981530;28;20035;-82
2023/01/08 02:38:17;;;;;;;11.55;8.05;;;;;;;4.69;90.63;97560.06;4980509;28;20047;-83
2023/01/08 02:41:05;;;;;;;13.68;8.75;;;;;;;4.66;91.03;97555.19;4981124;28;20030;-82
2023/01/08 02:43:46;;;;;;;14.65;8.18;;;;;;;4.68;90.92;97558.41;4981388;28;20045;-82
2023/01/08 02:46:17;;;;;;;;;;;;;;;4.65;90.77;97558.78;4979323;28;20047;-82
2023/01/08 02:48:54;;;;;;;;;;;;;;;4.63;90.56;97563.34;4978349;28;20393;-82
2023/01/08 02:51:29;;;;;;;11.13;7.50;;;;;;;4.62;90.66;97569.50;4979361;28;20448;-82
2023/01/08 02:54:02;;;;;;;11.15;7.15;;;;;;;4.59;90.68;97567.28;4980847;28;20502;-82
2023/01/08 02:56:38;;;;;;;10.63;7.47;;;;;;;4.59;90.72;97559.47;4981608;28;20047;-82
2023/01/08 02:59:07;;;;;;;12.30;7.82;;;;;;;4.51;90.38;97548.19;4983684;28;20068;-82
2023/01/08 03:01:34;;;;;;;13.02;8.68;;;;;;;4.55;90.75;97557.22;4982856;28;20078;-82
2023/01/08 03:04:08;;;;;;;11.07;8.50;;;;;;;4.54;91.00;97547.00;4976089;28;20141;-82
2023/01/08 03:06:34;;;;;;;11.90;7.93;;;;;;;4.53;91.05;97546.19;4980521;28;20038;-82
2023/01/08 03:09:00;;;;;;;12.55;8.35;;;;;;;4.47;90.68;97556.47;4982544;28;20035;-82
2023/01/08 03:11:35;;;;;;;13.07;8.05;;;;;;;4.53;90.82;97556.59;4982977;28;20050;-82
2023/01/08 03:14:10;;;;;;;11.20;7.70;;;;;;;4.49;90.53;97559.72;4980908;28;20490;-82
2023/01/08 03:16:51;;;;;;;11.32;8.23;;;;;;;4.53;90.90;97555.78;4999503;28;20170;-82
2023/01/08 03:19:37;;;;;;;12.53;8.07;;;;;;;4.47;90.48;97554.69;4978442;28;20043;-82
2023/01/08 03:22:16;;;;;;;11.68;7.53;;;;;;;4.51;90.92;97547.38;4980848;28;20278;-83
2023/01/08 03:24:48;;;;;;;10.80;7.57;;;;;;;4.52;90.98;97543.78;4981556;28;20038;-82
2023/01/08 03:27:21;;;;;;;11.98;7.38;;;;;;;4.46;90.97;97534.91;4981155;28;20042;-82
2023/01/08 03:29:53;;;;;;;11.27;8.23;;;;;;;4.52;91.08;97544.59;4987824;28;20042;-82
2023/01/08 03:32:23;;;;;;;11.27;8.30;;;;;;;4.48;91.23;97517.34;4979918;28;20185;-83
2023/01/08 03:34:53;;;;;;;12.30;7.75;;;;;;;4.51;91.24;97516.22;4980338;28;20037;-83
2023/01/08 03:37:28;;;;;;;12.52;7.97;;;;;;;4.51;91.18;97517.00;4978883;28;20502;-82
2023/01/08 03:40:03;;;;;;;10.73;7.32;;;;;;;4.52;91.49;97500.44;4977995;28;20049;-82
2023/01/08 03:42:31;;;;;;;13.13;7.70;;;;;;;4.54;91.31;97502.84;4981319;28;20049;-82
2023/01/08 03:44:58;;;;;;;10.60;7.28;;;;;;;4.56;91.21;97504.31;4977237;28;20054;-82
2023/01/08 03:47:29;;;;;;;12.68;7.35;;;;;;;4.60;91.34;97485.78;4986778;28;20092;-83
2023/01/08 03:50:00;;;;;;;11.63;7.97;;;;;;;4.57;91.39;97500.72;4977258;28;20058;-82
2023/01/08 03:52:31;;;;;;;12.95;8.48;;;;;;;4.61;90.93;97489.97;4978336;28;20035;-82
2023/01/08 03:54:57;;;;;;;11.95;8.50;;;;;;;4.60;91.19;97483.16;4981374;28;20038;-82
2023/01/08 03:57:23;;;;;;;12.38;8.10;;;;;;;4.50;90.89;97468.66;4980177;28;20065;-83
2023/01/08 03:59:48;;;;;;;11.68;8.02;;;;;;;4.54;90.90;97466.50;4994596;28;20505;-82
2023/01/08 04:02:15;;;;;;;11.63;7.43;;;;;;;4.57;90.84;97474.75;4979905;28;20093;-82
2023/01/08 04:04:40;;;;;;;11.60;7.55;;;;;;;4.69;91.02;97467.34;4978465;28;20041;-83
2023/01/08 04:07:09;;;;;;;10.55;7.60;;;;;;;4.70;90.75;97462.94;4980790;28;20042;-82
2023/01/08 04:09:35;;;;;;;11.95;7.55;;;;;;;4.70;90.82;97465.56;4984982;28;20165;-82
2023/01/08 04:12:00;;;;;;;11.68;8.00;;;;;;;4.68;90.64;97444.13;4979057;28;20047;-82
2023/01/08 04:14:26;;;;;;;11.25;7.40;;;;;;;4.72;90.73;97471.38;4979948;28;20545;-82
2023/01/08 04:16:51;;;;;;;13.32;7.80;;;;;;;4.72;90.67;97464.38;4975347;28;20053;-82
2023/01/08 04:19:17;;;;;;;13.25;7.53;;;;;;;4.82;90.59;97464.94;4978903;28;20046;-82
2023/01/08 04:21:42;;;;;;;12.13;7.55;;;;;;;4.83;90.09;97465.72;4982366;28;20033;-82
2023/01/08 04:24:08;;;;;;;12.77;7.55;;;;;;;4.88;89.93;97476.41;4980372;28;20498;-82
2023/01/08 04:26:33;;;;;;;9.88;7.30;;;;;;;4.93;89.76;97465.47;4978440;28;20109;-82
2023/01/08 04:29:02;;;;;;;11.93;8.10;;;;;;;4.93;89.73;97470.69;4981717;28;20077;-82
2023/01/08 04:31:28;;;;;;;13.15;8.07;;;;;;;4.93;89.56;97468.09;4979413;28;20121;-82
2023/01/08 04:33:54;;;;;;;11.57;7.80;;;;;;;4.93;89.16;97483.66;4979708;28;20109;-82
2023/01/08 04:36:19;;;;;;;13.50;7.95;;;;;;;4.94;89.27;97480.88;4977589;28;20038;-82
2023/01/08 04:38:45;;;;;;;10.30;7.63;;;;;;;4.96;89.26;97478.91;4978420;28;20049;-82
2023/01/08 04:41:10;;;;;;;11.10;7.50;;;;;;;4.92;88.90;97469.03;4979393;28;20037;-82
2023/01/08 04:43:36;;;;;;;11.40;7.20;;;;;;;4.95;88.66;97471.28;4978194;28;20066;-82
2023/01/08 04:46:06;;;;;;;11.73;7.40;;;;;;;4.88;88.46;97476.41;4981991;28;20043;-82
2023/01/08 04:48:32;;;;;;;9.70;6.93;;;;;;;4.94;88.39;97482.69;4978450;28;20041;-82
2023/01/08 04:50:59;;;;;;;11.50;7.63;;;;;;;4.97;88.72;97474.50;4978887;28;20692;-82
2023/01/08 04:53:26;;;;;;;12.00;7.82;;;;;;;5.02;88.34;97477.38;4977134;28;20423;-82
2023/01/08 04:55:52;;;;;;;11.43;7.50;;;;;;;5.02;88.07;97479.97;4980711;28;20363;-82
2023/01/08 04:58:17;;;;;;;11.63;7.97;;;;;;;4.92;88.19;97467.28;4979548;28;20125;-82
2023/01/08 05:00:43;;;;;;;11.07;7.63;;;;;;;4.89;88.31;97462.41;4977701;28;20065;-82
2023/01/08 05:03:08;;;;;;;10.40;7.05;;;;;;;4.94;88.66;97449.69;4977310;28;20117;-82
2023/01/08 05:05:34;;;;;;;11.38;7.38;;;;;;;4.95;88.76;97456.50;4977767;28;20030;-82
2023/01/08 05:08:00;;;;;;;11.75;7.78;;;;;;;4.95;88.76;97442.72;4976771;28;20069;-83
2023/01/08 05:10:25;;;;;;;11.25;7.10;;;;;;;4.81;88.54;97439.13;4974939;28;20031;-83
2023/01/08 05:12:51;;;;;;;9.82;7.30;;;;;;;4.83;88.98;97439.75;4976139;28;20039;-82
2023/01/08 05:15:16;;;;;;;10.93;7.63;;;;;;;4.87;88.91;97428.03;4976935;28;20556;-83
2023/01/08 05:17:42;;;;;;;9.43;7.30;;;;;;;4.87;88.79;97433.22;4982500;28;20038;-82
2023/01/08 05:20:08;;;;;;;10.40;7.20;;;;;;;4.82;88.72;97425.16;4979035;28;20034;-82
2023/01/08 05:22:34;;;;;;;11.32;7.43;;;;;;;4.81;88.92;97418.34;4977520;28;20042;-82
2023/01/08 05:25:00;;;;;;;10.20;7.22;;;;;;;4.77;88.94;97422.28;4976900;28;20039;-83
2023/01/08 05:27:28;;;;;;;10.55;6.93;;;;;;;4.76;88.72;97426.66;4978972;28;20034;-82
2023/01/08 05:29:53;;;;;;;10.82;6.75;;;;;;;4.74;89.14;97433.84;4978531;28;20097;-82
2023/01/08 05:32:19;;;;;;;9.65;6.47;;;;;;;4.70;89.14;97424.78;4982074;28;20470;-82
2023/01/08 05:34:45;;;;;;;11.52;7.20;;;;;;;4.80;89.64;97440.13;4979760;28;20038;-82
2023/01/08 05:37:11;;;;;;;10.10;7.13;;;;;;;4.80;89.35;97435.72;4981130;28;20108;-82
2023/01/08 05:39:37;;;;;;;11.20;7.93;;;;;;;4.84;89.30;97433.56;4982428;28;20066;-82
2023/01/08 05:42:03;;;;;;;11.05;8.07;;;;;;;4.90;89.41;97439.84;4981562;28;20054;-82
2023/01/08 05:44:29;;;;;;;11.30;7.13;;;;;;;4.93;88.88;97429.91;4982112;28;20023;-82
2023/01/08 05:46:56;;;;;;;11.55;7.68;;;;;;;4.87;88.45;97427.22;4981864;28;20049;-82
2023/01/08 05:49:22;;;;;;;10.20;6.95;;;;;;;4.94;88.47;97431.50;4981407;28;20046;-82
2023/01/08 05:51:49;;;;;;;10.07;7.13;;;;;;;4.95;88.09;97421.91;4981876;28;20042;-82
2023/01/08 05:54:15;;;;;;;10.73;6.95;;;;;;;4.96;88.01;97426.94;4984336;28;20398;-82
2023/01/08 05:56:42;;;;;;;10.52;6.78;;;;;;;4.93;87.68;97422.09;4984541;28;20050;-82
2023/01/08 05:59:12;;;;;;;11.13;7.20;;;;;;;4.98;87.65;97429.38;4983692;28;20034;-82
2023/01/08 06:01:38;;;;;;;9.98;7.18;;;;;;;4.92;87.72;97420.50;4981554;28;20077;-82
2023/01/08 06:04:03;;;;;;;10.63;6.95;;;;;;;4.89;87.59;97420.84;4980670;28;20062;-82
2023/01/08 06:06:29;;;;;;;10.98;7.10;;;;;;;4.85;87.62;97409.19;4980495;28;20037;-82
2023/01/08 06:08:54;;;;;;;9.98;6.88;;;;;;;4.82;87.69;97410.38;4982708;28;20502;-83
2023/01/08 06:11:20;;;;;;;10.82;7.43;;;;;;;4.70;88.41;97401.41;4981891;28;20390;-82
2023/01/08 06:13:48;;;;;;;9.95;7.47;;;;;;;4.67;88.64;97411.34;4980236;28;20041;-82
2023/01/08 06:16:16;;;;;;;11.55;7.28;;;;;;;4.72;88.89;97409.81;4983778;28;20054;-83
2023/01/08 06:18:41;;;;;;;9.40;7.25;;;;;;;4.68;88.79;97402.56;4982306;28;20394;-82
2023/01/08 06:21:07;;;;;;;12.27;7.40;;;;;;;4.69;89.04;97393.81;4981842;28;20042;-82
2023/01/08 06:23:33;;;;;;;10.38;7.20;;;;;;;4.67;88.93;97400.94;4982355;28;20034;-82
2023/01/08 06:26:02;;;;;;;10.95;7.30;;;;;;;4.74;89.02;97407.88;4980036;28;20050;-82
2023/01/08 06:28:28;;;;;;;12.35;7.70;;;;;;;4.74;88.91;97399.28;4980558;28;20390;-82
2023/01/08 06:30:58;;;;;;;10.75;7.47;;;;;;;4.79;88.44;97400.31;4978469;28;20047;-82
2023/01/08 06:33:24;;;;;;;12.25;7.90;;;;;;;4.75;88.68;97406.06;4980259;28;20449;-82
2023/01/08 06:35:49;;;;;;;11.98;7.20;;;;;;;4.75;88.69;97403.47;4979964;28;20113;-82
2023/01/08 06:38:17;;;;;;;9.95;7.20;;;;;;;4.87;88.33;97411.63;4980497;28;20046;-82
2023/01/08 06:40:44;;;;;;;11.38;7.50;;;;;;;4.88;88.27;97406.25;4978239;28;20035;-82
2023/01/08 06:43:09;;;;;;;11.50;7.88;;;;;;;4.88;88.23;97406.25;4980808;28;20053;-83
2023/01/08 06:45:35;;;;;;;10.98;8.13;;;;;;;4.89;88.12;97405.25;4978943;28;20050;-82
2023/01/08 06:48:03;;;;;;;12.40;8.27;;;;;;;4.94;88.02;97402.94;4978268;28;20089;-82
2023/01/08 06:50:29;;;;;;;10.45;7.43;;;;;;;4.93;88.15;97396.13;4980269;28;20510;-83
2023/01/08 06:52:55;;;;;;;11.48;7.75;;;;;;;4.93;88.49;97401.31;4984843;28;20041;-82
2023/01/08 06:55:23;;;;;;;12.13;8.32;;;;;;;4.93;88.31;97406.53;4983258;28;20147;-83
2023/01/08 06:57:57;;;;;;;12.05;7.85;;;;;;;4.96;88.30;97413.94;4984523;28;20093;-82
2023/01/08 07:00:25;;;;;;;12.75;7.57;;;;;;;5.04;88.19;97413.84;4977095;28;20049;-82
2023/01/08 07:02:51;;;;;;;11.20;8.05;;;;;;;5.04;88.13;97408.66;4977571;28;20046;-82
2023/01/08 07:05:18;;;;;;;12.00;8.18;;;;;;;5.07;87.98;97407.47;4979475;28;20303;-82
2023/01/08 07:07:44;;;;;;;12.30;8.18;;;;;;;5.06;87.89;97414.47;4983413;28;20422;-82
2023/01/08 07:10:10;;;;;;;10.32;7.53;;;;;;;5.01;88.03;97409.00;4983694;28;20121;-83
2023/01/08 07:12:36;;;;;;;11.77;7.88;;;;;;;5.01;88.44;97406.41;4981674;28;20166;-83
2023/01/08 07:15:02;;;;;;;10.43;7.78;;;;;;;4.96;88.35;97416.53;4982262;28;20100;-83
2023/01/08 07:17:28;;;;;;;9.63;7.53;;;;;;;5.01;88.21;97418.59;4982113;28;20053;-82
2023/01/08 07:19:53;;;;;;;9.90;7.55;;;;;;;4.98;88.38;97414.59;4982487;28;20386;-82
2023/01/08 07:22:20;;;;;;;13.90;8.02;;;;;;;4.93;88.27;97411.72;4981473;28;20038;-82
2023/01/08 07:24:45;;;;;;;12.90;8.27;;;;;;;4.96;88.40;97413.13;4979377;28;20038;-82
2023/01/08 07:27:10;;;;;;;13.25;8.75;;;;;;;5.00;88.01;97407.41;4979573;28;20064;-82
2023/01/08 07:29:36;;;;;;;10.90;7.35;;;;;;;4.99;87.83;97408.41;4981193;28;20042;-82
2023/01/08 07:32:02;;;;;;;11.07;7.78;;;;;;;5.01;88.00;97416.81;4979068;28;20041;-82
2023/01/08 07:34:27;;;;;;;10.63;7.97;;;;;;;5.03;87.86;97416.63;4980621;28;20034;-82
2023/01/08 07:36:53;;;;;;;11.38;8.20;;;;;;;5.05;87.80;97433.66;4979909;28;20114;-82
2023/01/08 07:39:18;;;;;;;12.52;7.88;;;;;;;5.02;87.90;97421.00;4981281;28;20038;-82
2023/01/08 07:41:44;;;;;;;13.10;8.23;;;;;;;4.98;87.98;97416.38;4978978;28;20035;-82
2023/01/08 07:44:10;;;;;;;10.80;7.93;;;;;;;5.02;87.96;97426.22;4978312;28;20062;-82
2023/01/08 07:46:36;;;;;;;11.02;7.97;;;;;;;4.98;87.83;97429.38;4977954;28;20088;-82
2023/01/08 07:49:01;;;;;;;12.13;8.00;;;;;;;5.06;87.90;97426.66;4983135;28;20478;-82
2023/01/08 07:51:28;;;;;;;16.02;7.68;;;;;;;4.97;87.75;97407.75;4982684;28;20129;-82
2023/01/08 07:53:55;;;;;;;12.27;7.78;;;;;;;4.99;88.17;97412.78;4985250;28;20039;-83
2023/01/08 07:56:21;;;;;;;13.55;8.40;;;;;;;5.00;87.90;97417.00;4978525;28;20492;-83
2023/01/08 07:58:46;;;;;;;13.00;8.13;;;;;;;4.97;88.05;97425.13;4975662;28;20038;-82
2023/01/08 08:01:13;;;;;;;11.93;7.90;;;;;;;5.01;88.24;97432.41;4978836;28;20089;-83
2023/01/08 08:03:40;;;;;;;11.00;8.45;;;;;;;5.08;88.08;97433.28;4973006;28;20023;-82
2023/01/08 08:06:07;;;;;;;12.57;8.30;;;;;;;5.04;88.08;97437.25;4981787;28;20039;-82
2023/01/08 08:08:33;;;;;;;14.55;9.13;;;;;;;5.09;88.12;97445.28;4978598;28;20035;-83
2023/01/08 08:10:58;;;;;;;11.82;8.55;;;;;;;5.17;87.83;97439.22;4983131;28;20086;-83
2023/01/08 08:13:24;;;;;;;12.43;8.60;;;;;;;5.17;87.18;97433.22;4976029;28;20034;-83
2023/01/08 08:15:49;;;;;;;11.50;8.32;;;;;;;5.32;87.12;97437.38;4983876;28;20061;-82
2023/01/08 08:18:15;;;;;;;12.70;8.18;;;;;;;5.34;86.47;97447.63;4978595;28;20038;-82
2023/01/08 08:20:40;;;;;;;12.82;8.82;;;;;;;5.41;86.35;97437.28;4978547;28;20495;-82
2023/01/08 08:23:12;;;;;;;13.88;9.35;;;;;;;5.46;86.21;97433.16;4976911;28;20041;-83
2023/01/08 08:25:40;;;;;;;14.07;9.02;;;;;;;5.47;86.27;97421.75;4977014;28;20490;-94
2023/01/08 08:28:06;;;;;;;11.20;8.32;;;;;;;5.48;85.86;97418.16;4980606;28;20038;-83
2023/01/08 08:30:34;;;;;;;14.23;8.38;;;;;;;5.51;86.05;97422.97;4981720;28;20038;-83
2023/01/08 08:33:04;;;;;;;10.75;8.02;;;;;;;5.62;86.28;97417.31;4980614;28;20037;-82
2023/01/08 08:35:30;;;;;;;11.48;8.68;;;;;;;5.45;85.98;97415.09;4978350;28;20043;-83
2023/01/08 08:37:57;;;;;;;12.45;8.65;;;;;;;5.56;86.66;97433.66;4985250;28;20030;-83
2023/01/08 08:40:24;;;;;;;12.73;8.43;;;;;;;5.68;86.63;97420.16;4975850;28;20047;-83
2023/01/08 08:43:03;;;;;;;11.77;8.18;;;;;;;5.68;86.02;97431.38;4982393;28;20033;-83
2023/01/08 08:45:29;;;;;;;14.05;8.98;;;;;;;5.74;85.70;97420.22;4981838;28;20543;-83
2023/01/08 08:47:55;;;;;;;12.13;7.95;;;;;;;5.88;85.73;97415.97;4977467;28;20054;-83
2023/01/08 08:50:21;;;;;;;12.32;8.23;;;;;;;5.96;85.88;97396.84;4976940;28;20054;-84
2023/01/08 08:52:47;;;;;;;15.10;8.88;;;;;;;6.05;85.50;97399.09;4976728;28;20039;-85
2023/01/08 08:55:16;;;;;;;11.15;8.52;;;;;;;6.09;84.99;97397.75;4975131;28;20042;-84
2023/01/08 08:57:46;;;;;;;11.13;8.32;;;;;;;6.15;84.34;97417.03;4975226;28;20045;-83
2023/01/08 09:00:13;;;;;;;12.55;8.82;;;;;;;6.16;84.10;97414.22;4984769;28;20039;-83
2023/01/08 09:02:39;;;;;;;12.55;8.05;;;;;;;6.12;84.38;97420.81;4974836;28;20053;-83
2023/01/08 09:05:06;;;;;;;13.05;8.82;;;;;;;6.22;84.69;97411.88;4982038;28;20034;-83
2023/01/08 09:07:31;;;;;;;13.13;8.05;;;;;;;6.32;84.15;97399.34;4983734;28;20046;-83
2023/01/08 09:09:57;;;;;;;11.23;8.20;;;;;;;6.37;84.02;97389.97;4980425;28;20049;-83
2023/01/08 09:12:23;;;;;;;9.32;7.45;;;;;;;6.35;83.97;97386.72;4985921;28;20035;-83
2023/01/08 09:14:53;;;;;;;11.50;8.15;;;;;;;6.49;84.11;97392.03;4986962;28;20398;-83
2023/01/08 09:17:20;;;;;;;9.90;7.22;;;;;;;6.57;83.24;97390.09;4985375;28;20042;-83
2023/01/08 09:19:46;;;;;;;8.63;7.13;;;;;;;6.68;82.87;97391.34;4983437;28;20529;-84
2023/01/08 09:22:12;;;;;;;10.32;7.10;;;;;;;6.85;82.54;97399.66;4982187;28;20038;-83
2023/01/08 09:24:37;;;;;;;11.90;7.95;;;;;;;6.96;81.64;97399.13;4985643;28;20034;-83
2023/01/08 09:27:03;;;;;;;13.60;7.85;;;;;;;6.98;81.41;97402.34;4980760;28;20042;-84
2023/01/08 09:29:28;;;;;;;11.07;7.18;;;;;;;7.06;81.47;97396.94;4981213;28;20039;-83
2023/01/08 09:31:54;;;;;;;9.18;6.95;;;;;;;7.24;82.40;97402.44;4980071;28;20039;-84
2023/01/08 09:34:20;;;;;;;7.72;6.00;;;;;;;7.14;80.91;97398.63;4985302;28;20042;-83
2023/01/08 09:36:46;;;;;;;11.48;6.88;;;;;;;7.36;81.13;97401.88;4982689;28;20030;-83
2023/01/08 09:39:11;;;;;;;8.10;6.85;;;;;;;7.40;80.37;97397.88;4983313;28;20049;-83
2023/01/08 09:41:45;;;;;;;54.60;26.40;;;;;;;7.40;80.50;97395.28;4983240;28;20042;-83
2023/01/08 09:44:19;;;;;;;46.20;23.77;;;;;;;7.44;80.62;97404.34;4978755;28;20104;-82
2023/01/08 09:46:47;;;;;;;16.98;11.50;;;;;;;7.57;80.79;97400.97;4987357;28;20031;-83
2023/01/08 09:49:21;;;;;;;13.98;11.13;;;;;;;7.66;80.14;97408.38;4983030;28;20038;-84
2023/01/08 09:51:47;;;;;;;9.65;7.25;;;;;;;7.82;79.32;97407.22;4985681;28;20486;-83
2023/01/08 09:54:16;;;;;;;9.98;8.02;;;;;;;7.97;79.18;97394.78;4984869;28;20042;-83
2023/01/08 09:56:43;;;;;;;15.57;9.63;;;;;;;7.97;78.68;97393.97;4981878;28;20370;-82
2023/01/08 09:59:16;;;;;;;13.52;8.00;;;;;;;7.95;78.50;97388.97;4985144;28;20586;-83
2023/01/08 10:01:46;;;;;;;7.45;5.82;;;;;;;7.94;78.94;97392.56;4982844;28;20050;-83
2023/01/08 10:04:20;;;;;;;7.18;5.75;;;;;;;7.91;78.76;97386.94;4979728;28;20045;-83
2023/01/08 10:06:56;;;;;;;8.00;5.75;;;;;;;7.93;79.16;97392.78;4981539;28;20042;-83
2023/01/08 10:09:31;;;;;;;8.98;6.50;;;;;;;7.93;79.27;97384.94;4985016;28;20030;-83
2023/01/08 10:12:03;;;;;;;7.53;5.95;;;;;;;7.96;78.73;97381.91;4983478;28;20126;-83
2023/01/08 10:14:46;;;;;;;8.77;6.20;;;;;;;7.96;79.65;97384.53;4982887;28;20038;-83
2023/01/08 10:17:30;;;;;;;8.30;6.05;;;;;;;7.94;80.05;97376.09;4981364;28;20494;-83
2023/01/08 10:19:56;;;;;;;7.88;5.57;;;;;;;7.95;81.16;97380.31;4976985;28;20376;-83
2023/01/08 10:22:27;;;;;;;8.70;6.18;;;;;;;7.98;81.17;97378.13;4980625;28;20049;-83
2023/01/08 10:25:10;;;;;;;7.32;6.32;;;;;;;7.89;82.34;97366.25;4983052;28;20486;-83
2023/01/08 10:27:49;;;;;;;9.77;6.72;;;;;;;7.90;82.47;97372.28;4980017;28;20375;-83
2023/01/08 10:30:29;;;;;;;9.93;6.72;;;;;;;7.90;83.13;97369.66;4978491;28;20600;-83
2023/01/08 10:33:02;;;;;;;10.98;7.80;;;;;;;7.85;84.15;97369.47;4977999;28;20097;-83
2023/01/08 10:35:36;;;;;;;11.05;7.35;;;;;;;7.85;84.33;97362.44;4980241;28;20390;-83
2023/01/08 10:38:03;;;;;;;8.95;7.05;;;;;;;7.82;84.58;97360.22;4978303;28;20066;-83
2023/01/08 10:40:49;;;;;;;9.27;6.60;;;;;;;7.76;84.93;97354.00;4990969;28;20084;-83
2023/01/08 10:43:20;;;;;;;9.80;6.90;;;;;;;7.83;85.63;97353.19;4997525;28;20043;-84
2023/01/08 10:46:01;;;;;;;8.82;7.47;;;;;;;7.79;85.94;97350.16;4980526;28;20034;-83
2023/01/08 10:48:43;;;;;;;10.35;7.13;;;;;;;7.76;86.48;97340.16;4987917;28;20042;-83
2023/01/08 10:51:23;;;;;;;9.68;7.47;;;;;;;7.76;86.82;97334.94;4984903;28;20041;-83
2023/01/08 10:53:50;;;;;;;10.30;7.35;;;;;;;7.79;86.86;97337.13;4976911;28;20035;-83
2023/01/08 10:56:28;;;;;;;10.20;6.63;;;;;;;7.81;87.30;97340.34;4979662;28;20042;-83
2023/01/08 10:58:55;;;;;;;9.57;7.32;;;;;;;7.77;87.62;97339.13;4977050;28;20053;-83
2023/01/08 11:01:30;;;;;;;9.20;7.53;;;;;;;7.80;87.57;97333.53;4978793;28;20078;-83
2023/01/08 11:04:05;;;;;;;10.18;7.13;;;;;;;7.83;88.06;97332.31;4979941;28;20062;-83
2023/01/08 11:06:41;;;;;;;9.65;7.20;;;;;;;7.73;88.06;97317.84;4987038;28;20042;-92
2023/01/08 11:09:22;;;;;;;11.25;7.57;;;;;;;7.75;88.38;97315.06;4989167;28;20491;-91
2023/01/08 11:11:53;;;;;;;9.43;7.43;;;;;;;7.69;88.66;97311.44;4978134;28;20030;-91
2023/01/08 11:14:33;;;;;;;11.18;7.68;;;;;;;7.58;89.21;97317.25;4984671;28;20031;-92
2023/01/08 11:17:07;;;;;;;10.55;7.43;;;;;;;7.56;89.72;97306.22;4980008;28;20034;-90
2023/01/08 11:19:41;;;;;;;10.50;7.72;;;;;;;7.38;90.13;97292.94;4972482;28;20062;-90
2023/01/08 11:22:44;;;;;;;9.40;7.03;;;;;;;7.42;90.26;97320.22;4985993;28;20037;-90
2023/01/08 11:25:30;;;;;;;10.30;7.53;;;;;;;7.34;91.08;97302.97;4974700;28;20045;-83
2023/01/08 11:28:00;;;;;;;10.27;7.63;;;;;;;7.37;91.27;97296.53;4970203;28;20031;-83
2023/01/08 11:30:31;;;;;;;10.70;7.43;;;;;;;7.38;91.86;97303.38;4975859;28;20045;-84
2023/01/08 11:33:17;;;;;;;11.77;8.00;;;;;;;7.45;92.41;97299.78;4981836;28;20055;-84
2023/01/08 11:35:57;;;;;;;10.35;7.65;;;;;;;7.50;92.36;97302.59;4980630;28;20382;-84
2023/01/08 11:38:23;;;;;;;12.07;8.20;;;;;;;7.45;92.14;97297.16;4983932;28;20395;-84
2023/01/08 11:41:29;;;;;;;11.88;7.97;;;;;;;7.50;92.69;97296.56;4982797;28;20034;-84
2023/01/08 11:44:32;;;;;;;12.20;7.30;;;;;;;7.51;92.33;97295.56;4991339;28;20046;-84
2023/01/08 11:47:24;;;;;;;13.40;8.18;;;;;;;7.54;92.63;97281.31;4973888;28;20042;-84